createdAt,value
2017-11-30T00:00:19.270Z,19.27
2017-11-30T00:01:32.017Z,19.27
2017-11-30T00:02:44.772Z,19.28
2017-11-30T00:03:57.513Z,19.4
2017-11-30T00:05:09.802Z,19.34
2017-11-30T00:06:22.111Z,19.34
2017-11-30T00:07:34.845Z,19.31
2017-11-30T00:08:47.587Z,19.38
2017-11-30T00:10:00.323Z,19.32
2017-11-30T00:11:13.061Z,19.39
2017-11-30T00:12:25.804Z,19.38
2017-11-30T00:13:38.558Z,19.31
2017-11-30T00:14:50.879Z,19.15
2017-11-30T00:16:03.640Z,19.15
2017-11-30T00:17:16.414Z,19.17
2017-11-30T00:18:29.159Z,19.27
2017-11-30T00:19:41.484Z,19.3
2017-11-30T00:20:53.846Z,19.39
2017-11-30T00:22:06.596Z,19.39
2017-11-30T00:23:19.365Z,19.38
2017-11-30T00:24:32.127Z,19.39
2017-11-30T00:25:44.898Z,19.42
2017-11-30T00:26:57.225Z,19.35
2017-11-30T00:28:10.005Z,19.4
2017-11-30T00:29:22.761Z,19.35
2017-11-30T00:30:35.509Z,19.35
2017-11-30T00:31:48.274Z,19.35
2017-11-30T00:33:00.587Z,19.35
2017-11-30T00:34:13.359Z,19.39
2017-11-30T00:35:26.157Z,19.4
2017-11-30T00:36:38.900Z,19.39
2017-11-30T00:37:51.654Z,19.43
2017-11-30T00:39:04.431Z,19.42
2017-11-30T00:40:16.290Z,19.46
2017-11-30T00:41:29.051Z,19.57
2017-11-30T00:42:41.821Z,19.46
2017-11-30T00:43:54.163Z,19.5
2017-11-30T00:45:06.491Z,19.55
2017-11-30T00:46:19.231Z,19.55
2017-11-30T00:47:31.998Z,19.64
2017-11-30T00:48:44.768Z,19.65
2017-11-30T00:49:57.079Z,19.7
2017-11-30T00:51:09.845Z,19.64
2017-11-30T00:52:22.656Z,19.64
2017-11-30T00:53:35.390Z,19.68
2017-11-30T00:54:48.157Z,19.7
2017-11-30T00:56:00.933Z,19.65
2017-11-30T00:57:13.674Z,19.65
2017-11-30T00:58:26.408Z,19.61
2017-11-30T00:59:38.715Z,19.7
2017-11-30T01:00:51.437Z,19.6
2017-11-30T01:02:04.129Z,19.61
2017-11-30T01:03:16.375Z,19.65
2017-11-30T01:04:28.593Z,19.7
2017-11-30T01:05:41.276Z,19.67
2017-11-30T01:06:53.485Z,19.57
2017-11-30T01:08:06.174Z,19.53
2017-11-30T01:09:18.788Z,19.52
2017-11-30T01:10:31.449Z,19.5
2017-11-30T01:11:44.134Z,19.52
2017-11-30T01:12:56.801Z,19.52
2017-11-30T01:14:09.491Z,19.43
2017-11-30T01:15:22.240Z,19.45
2017-11-30T01:16:34.920Z,19.39
2017-11-30T01:17:46.681Z,19.42
2017-11-30T01:18:59.404Z,19.34
2017-11-30T01:20:12.077Z,19.4
2017-11-30T01:21:24.780Z,19.35
2017-11-30T01:22:37.437Z,19.31
2017-11-30T01:23:49.597Z,19.39
2017-11-30T01:25:02.262Z,19.46
2017-11-30T01:26:14.909Z,19.46
2017-11-30T01:27:27.562Z,19.45
2017-11-30T01:28:40.214Z,19.4
2017-11-30T01:29:52.966Z,19.43
2017-11-30T01:31:05.650Z,19.47
2017-11-30T01:32:18.346Z,19.43
2017-11-30T01:33:30.985Z,19.53
2017-11-30T01:34:43.703Z,19.5
2017-11-30T01:35:55.919Z,19.53
2017-11-30T01:37:08.587Z,19.57
2017-11-30T01:38:20.784Z,19.53
2017-11-30T01:39:33.033Z,19.5
2017-11-30T01:40:45.261Z,19.57
2017-11-30T01:41:57.447Z,19.65
2017-11-30T01:43:10.141Z,19.52
2017-11-30T01:44:22.799Z,19.49
2017-11-30T01:45:35.437Z,19.46
2017-11-30T01:46:48.133Z,19.47
2017-11-30T01:48:00.794Z,19.55
2017-11-30T01:49:13.490Z,19.47
2017-11-30T01:50:26.167Z,19.55
2017-11-30T01:51:38.840Z,19.61
2017-11-30T01:52:50.628Z,19.57
2017-11-30T01:54:03.309Z,19.57
2017-11-30T01:55:16.003Z,19.52
2017-11-30T01:56:28.771Z,19.52
2017-11-30T01:57:41.509Z,19.55
2017-11-30T01:58:54.170Z,19.5
2017-11-30T02:00:06.811Z,19.46
2017-11-30T02:01:19.440Z,19.55
2017-11-30T02:02:31.616Z,19.57
2017-11-30T02:03:44.245Z,19.5
2017-11-30T02:04:56.456Z,19.53
2017-11-30T02:06:09.105Z,19.55
2017-11-30T02:07:21.736Z,19.5
2017-11-30T02:08:34.389Z,19.5
2017-11-30T02:09:47.053Z,19.52
2017-11-30T02:10:59.699Z,19.5
2017-11-30T02:12:12.328Z,19.5
2017-11-30T02:13:25.011Z,19.35
2017-11-30T02:14:37.274Z,19.38
2017-11-30T02:15:49.929Z,19.39
2017-11-30T02:17:02.644Z,19.39
2017-11-30T02:18:15.388Z,19.4
2017-11-30T02:19:28.061Z,19.38
2017-11-30T02:20:40.800Z,19.35
2017-11-30T02:21:53.544Z,19.35
2017-11-30T02:23:06.250Z,19.35
2017-11-30T02:24:18.944Z,19.38
2017-11-30T02:25:31.725Z,19.31
2017-11-30T02:26:44.445Z,19.34
2017-11-30T02:27:57.097Z,19.31
2017-11-30T02:29:09.792Z,19.34
2017-11-30T02:30:22.113Z,19.34
2017-11-30T02:31:34.356Z,19.3
2017-11-30T02:32:47.079Z,19.3
2017-11-30T02:33:59.833Z,19.28
2017-11-30T02:35:12.581Z,19.28
2017-11-30T02:36:25.334Z,19.28
2017-11-30T02:37:38.054Z,19.17
2017-11-30T02:38:50.853Z,19.15
2017-11-30T02:40:03.574Z,19.16
2017-11-30T02:41:15.915Z,19.21
2017-11-30T02:42:27.741Z,19.16
2017-11-30T02:43:40.490Z,19.1
2017-11-30T02:44:53.251Z,19.16
2017-11-30T02:46:05.965Z,19.13
2017-11-30T02:47:18.735Z,19.13
2017-11-30T02:48:31.060Z,19.15
2017-11-30T02:49:43.814Z,19.13
2017-11-30T02:50:56.558Z,19.15
2017-11-30T02:52:08.849Z,19.17
2017-11-30T02:53:21.558Z,19.09
2017-11-30T02:54:34.319Z,19.07
2017-11-30T02:55:47.092Z,19.1
2017-11-30T02:56:59.883Z,19.09
2017-11-30T02:58:12.170Z,18.99
2017-11-30T02:59:24.508Z,18.97
2017-11-30T03:00:37.222Z,19.1
2017-11-30T03:01:49.545Z,19.02
2017-11-30T03:03:02.317Z,18.94
2017-11-30T03:04:15.031Z,18.94
2017-11-30T03:05:27.797Z,18.94
2017-11-30T03:06:40.537Z,18.9
2017-11-30T03:07:53.321Z,19.07
2017-11-30T03:09:06.084Z,18.91
2017-11-30T03:10:18.425Z,18.96
2017-11-30T03:11:30.267Z,18.91
2017-11-30T03:12:43.020Z,18.91
2017-11-30T03:13:55.786Z,18.93
2017-11-30T03:15:08.507Z,18.94
2017-11-30T03:16:21.333Z,18.89
2017-11-30T03:17:34.142Z,18.9
2017-11-30T03:18:46.494Z,18.84
2017-11-30T03:19:59.277Z,18.86
2017-11-30T03:21:11.625Z,18.86
2017-11-30T03:22:24.351Z,18.94
2017-11-30T03:23:36.651Z,18.87
2017-11-30T03:24:49.355Z,18.86
2017-11-30T03:26:01.165Z,18.87
2017-11-30T03:27:13.833Z,18.79
2017-11-30T03:28:26.533Z,18.84
2017-11-30T03:29:38.830Z,18.79
2017-11-30T03:30:51.605Z,18.82
2017-11-30T03:32:04.364Z,18.79
2017-11-30T03:33:17.061Z,18.76
2017-11-30T03:34:29.756Z,18.79
2017-11-30T03:35:42.440Z,18.76
2017-11-30T03:36:55.187Z,18.93
2017-11-30T03:38:07.444Z,18.83
2017-11-30T03:39:19.649Z,18.86
2017-11-30T03:40:31.923Z,18.84
2017-11-30T03:41:44.698Z,18.86
2017-11-30T03:42:57.392Z,18.72
2017-11-30T03:44:10.047Z,18.82
2017-11-30T03:45:22.794Z,18.86
2017-11-30T03:46:35.512Z,18.83
2017-11-30T03:47:48.181Z,18.82
2017-11-30T03:49:00.902Z,18.87
2017-11-30T03:50:13.588Z,18.82
2017-11-30T03:51:26.292Z,18.91
2017-11-30T03:52:38.622Z,18.94
2017-11-30T03:53:51.309Z,18.84
2017-11-30T03:55:03.576Z,18.82
2017-11-30T03:56:16.356Z,18.86
2017-11-30T03:57:29.136Z,18.9
2017-11-30T03:58:41.937Z,18.93
2017-11-30T03:59:54.745Z,18.89
2017-11-30T04:01:07.544Z,18.89
2017-11-30T04:02:20.385Z,18.9
2017-11-30T04:03:33.187Z,18.87
2017-11-30T04:04:45.517Z,18.84
2017-11-30T04:05:57.876Z,18.82
2017-11-30T04:07:10.221Z,18.82
2017-11-30T04:08:22.974Z,18.75
2017-11-30T04:09:35.761Z,18.76
2017-11-30T04:10:48.156Z,18.84
2017-11-30T04:12:00.951Z,18.83
2017-11-30T04:13:13.755Z,18.83
2017-11-30T04:14:26.530Z,18.78
2017-11-30T04:15:39.318Z,18.89
2017-11-30T04:16:52.110Z,18.79
2017-11-30T04:18:04.396Z,18.87
2017-11-30T04:19:17.140Z,18.9
2017-11-30T04:20:29.867Z,18.89
2017-11-30T04:21:42.102Z,18.89
2017-11-30T04:22:54.359Z,18.9
2017-11-30T04:24:07.108Z,18.87
2017-11-30T04:25:19.820Z,18.89
2017-11-30T04:26:32.515Z,18.87
2017-11-30T04:27:45.267Z,18.89
2017-11-30T04:28:58.010Z,18.9
2017-11-30T04:30:10.330Z,18.94
2017-11-30T04:31:23.072Z,18.91
2017-11-30T04:32:35.789Z,18.94
2017-11-30T04:33:48.501Z,18.94
2017-11-30T04:35:01.220Z,18.94
2017-11-30T04:36:13.520Z,18.96
2017-11-30T04:37:26.292Z,18.97
2017-11-30T04:38:39.005Z,18.91
2017-11-30T04:39:51.691Z,18.87
2017-11-30T04:41:04.059Z,18.79
2017-11-30T04:42:16.737Z,18.87
2017-11-30T04:43:29.462Z,18.79
2017-11-30T04:44:41.765Z,18.78
2017-11-30T04:45:54.052Z,18.79
2017-11-30T04:47:06.828Z,18.75
2017-11-30T04:48:19.546Z,18.79
2017-11-30T04:49:31.758Z,18.79
2017-11-30T04:50:44.469Z,18.82
2017-11-30T04:51:57.209Z,18.75
2017-11-30T04:53:09.971Z,18.79
2017-11-30T04:54:22.707Z,18.74
2017-11-30T04:55:35.420Z,18.93
2017-11-30T04:56:48.188Z,18.87
2017-11-30T04:58:00.938Z,18.9
2017-11-30T04:59:13.259Z,18.86
2017-11-30T05:00:25.076Z,18.9
2017-11-30T05:01:37.365Z,18.9
2017-11-30T05:02:50.124Z,18.94
2017-11-30T05:04:02.842Z,18.9
2017-11-30T05:05:15.148Z,18.91
2017-11-30T05:06:27.875Z,18.96
2017-11-30T05:07:40.576Z,19.09
2017-11-30T05:08:53.282Z,18.96
2017-11-30T05:10:06.043Z,18.94
2017-11-30T05:11:18.357Z,18.97
2017-11-30T05:12:31.138Z,18.97
2017-11-30T05:13:43.947Z,18.94
2017-11-30T05:14:56.744Z,18.94
2017-11-30T05:16:09.455Z,18.99
2017-11-30T05:17:22.217Z,18.97
2017-11-30T05:18:34.968Z,19.01
2017-11-30T05:19:47.734Z,19.09
2017-11-30T05:20:59.975Z,19.1
2017-11-30T05:51:41.559Z,19.3
2017-11-30T05:52:54.232Z,19.28
2017-11-30T05:54:06.902Z,19.39
2017-11-30T05:55:19.572Z,19.34
2017-11-30T05:56:32.241Z,19.34
2017-11-30T05:57:45.030Z,19.35
2017-11-30T05:58:57.674Z,19.28
2017-11-30T06:00:09.938Z,19.34
2017-11-30T06:01:22.653Z,19.27
2017-11-30T06:02:34.896Z,19.32
2017-11-30T06:03:47.548Z,19.3
2017-11-30T06:05:00.198Z,19.3
2017-11-30T06:06:12.931Z,19.24
2017-11-30T06:07:25.662Z,19.3
2017-11-30T06:08:38.376Z,19.31
2017-11-30T06:09:51.055Z,19.24
2017-11-30T06:11:03.746Z,19.27
2017-11-30T06:12:16.453Z,19.16
2017-11-30T06:13:28.691Z,19.16
2017-11-30T06:14:41.389Z,19.17
2017-11-30T06:15:54.066Z,19.17
2017-11-30T06:17:06.781Z,19.27
2017-11-30T06:18:19.519Z,19.24
2017-11-30T06:19:31.763Z,19.31
2017-11-30T06:20:44.439Z,19.28
2017-11-30T06:21:57.137Z,19.34
2017-11-30T06:23:09.825Z,19.27
2017-11-30T06:24:22.565Z,19.32
2017-11-30T06:25:35.266Z,19.2
2017-11-30T06:26:47.498Z,19.15
2017-11-30T06:28:00.174Z,19.15
2017-11-30T06:29:12.910Z,19.21
2017-11-30T06:30:25.668Z,19.17
2017-11-30T06:31:38.369Z,19.16
2017-11-30T06:32:51.054Z,19.25
2017-11-30T06:34:03.766Z,19.24
2017-11-30T06:35:16.040Z,19.28
2017-11-30T06:36:28.310Z,19.32
2017-11-30T06:37:41.067Z,19.28
2017-11-30T06:38:53.791Z,19.32
2017-11-30T06:40:06.525Z,19.3
2017-11-30T06:41:19.351Z,19.32
2017-11-30T06:42:32.064Z,19.28
2017-11-30T06:43:44.751Z,19.15
2017-11-30T06:44:57.418Z,19.16
2017-11-30T06:46:09.783Z,19.15
2017-11-30T06:47:22.548Z,19.12
2017-11-30T06:48:35.296Z,19.2
2017-11-30T06:49:47.135Z,19.13
2017-11-30T06:50:59.908Z,19.2
2017-11-30T06:52:12.230Z,19.28
2017-11-30T06:53:24.981Z,19.31
2017-11-30T06:54:37.741Z,19.34
2017-11-30T06:55:50.054Z,19.31
2017-11-30T06:57:02.827Z,19.34
2017-11-30T06:58:15.620Z,19.32
2017-11-30T06:59:28.390Z,19.31
2017-11-30T07:00:41.152Z,19.38
2017-11-30T07:01:53.955Z,19.32
2017-11-30T07:03:06.371Z,19.38
2017-11-30T07:04:18.682Z,19.34
2017-11-30T07:05:31.459Z,19.17
2017-11-30T07:06:44.246Z,19.3
2017-11-30T07:07:56.674Z,19.27
2017-11-30T07:09:09.446Z,19.24
2017-11-30T07:10:22.235Z,19.35
2017-11-30T07:11:34.988Z,19.3
2017-11-30T07:12:47.229Z,19.28
2017-11-30T07:13:59.525Z,19.25
2017-11-30T07:15:12.253Z,19.34
2017-11-30T07:16:24.557Z,19.34
2017-11-30T07:17:37.267Z,19.34
2017-11-30T07:18:50.048Z,19.34
2017-11-30T07:20:02.778Z,19.34
2017-11-30T07:21:15.506Z,19.3
2017-11-30T07:22:28.588Z,19.32
2017-11-30T07:23:41.619Z,19.38
2017-11-30T07:24:53.867Z,19.32
2017-11-30T07:26:06.639Z,19.3
2017-11-30T07:27:19.352Z,19.38
2017-11-30T07:28:31.582Z,19.38
2017-11-30T07:29:44.327Z,19.24
2017-11-30T07:30:56.990Z,19.17
2017-11-30T07:32:09.652Z,19.15
2017-11-30T07:33:22.349Z,19.06
2017-11-30T07:34:35.054Z,19.16
2017-11-30T07:35:47.703Z,19.16
2017-11-30T07:37:00.008Z,19.1
2017-11-30T07:38:12.730Z,19.13
2017-11-30T07:39:25.462Z,19.16
2017-11-30T07:40:38.187Z,19.13
2017-11-30T07:41:50.485Z,19.2
2017-11-30T07:43:03.207Z,19.23
2017-11-30T07:44:15.882Z,19.25
2017-11-30T07:45:28.136Z,19.13
2017-11-30T07:46:40.754Z,19.3
2017-11-30T07:47:52.957Z,19.24
2017-11-30T07:49:05.602Z,19.16
2017-11-30T07:50:18.284Z,19.25
2017-11-30T07:51:31.059Z,19.25
2017-11-30T07:52:43.749Z,19.32
2017-11-30T07:53:56.359Z,19.32
2017-11-30T07:55:09.093Z,19.35
2017-11-30T07:56:21.673Z,19.3
2017-11-30T07:57:34.369Z,19.42
2017-11-30T07:58:46.633Z,19.43
2017-11-30T07:59:58.807Z,19.45
2017-11-30T08:01:10.547Z,19.47
2017-11-30T08:02:23.242Z,19.4
2017-11-30T08:03:35.427Z,19.32
2017-11-30T08:04:48.135Z,19.38
2017-11-30T08:06:00.798Z,19.31
2017-11-30T08:07:13.453Z,19.28
2017-11-30T08:08:26.122Z,19.17
2017-11-30T08:09:38.748Z,19.07
2017-11-30T08:10:50.989Z,19.06
2017-11-30T08:12:03.187Z,18.97
2017-11-30T08:13:15.408Z,19.06
2017-11-30T08:14:28.084Z,19.12
2017-11-30T08:15:40.807Z,19.09
2017-11-30T08:16:53.648Z,19.12
2017-11-30T08:18:05.841Z,19.16
2017-11-30T08:19:18.019Z,19.27
2017-11-30T08:20:29.768Z,19.28
2017-11-30T08:21:42.490Z,19.34
2017-11-30T08:22:54.767Z,19.32
2017-11-30T08:24:07.514Z,19.3
2017-11-30T08:25:20.236Z,19.34
2017-11-30T08:26:32.584Z,19.34
2017-11-30T08:27:45.327Z,19.24
2017-11-30T08:28:57.593Z,19.31
2017-11-30T08:30:10.359Z,19.27
2017-11-30T08:31:23.119Z,19.28
2017-11-30T08:32:35.840Z,19.3
2017-11-30T08:33:47.622Z,19.35
2017-11-30T08:34:59.867Z,19.15
2017-11-30T08:36:12.573Z,19.17
2017-11-30T08:37:25.259Z,19.09
2017-11-30T08:38:37.565Z,19.07
2017-11-30T08:39:50.285Z,19.1
2017-11-30T08:41:02.967Z,19.01
2017-11-30T08:42:15.667Z,19.12
2017-11-30T08:43:28.378Z,19.16
2017-11-30T08:44:41.073Z,19.12
2017-11-30T08:45:53.321Z,19.13
2017-11-30T08:47:05.586Z,19.2
2017-11-30T08:48:18.284Z,19.28
2017-11-30T08:49:31.037Z,19.25
2017-11-30T08:50:43.752Z,19.27
2017-11-30T08:51:56.046Z,19.35
2017-11-30T08:53:08.770Z,19.42
2017-11-30T08:54:21.460Z,19.39
2017-11-30T08:55:34.187Z,19.27
2017-11-30T08:56:46.873Z,19.35
2017-11-30T08:57:59.548Z,19.38
2017-11-30T08:59:12.204Z,19.35
2017-11-30T09:00:24.921Z,19.47
2017-11-30T09:01:37.078Z,19.47
2017-11-30T09:02:49.254Z,19.45
2017-11-30T09:04:01.470Z,19.45
2017-11-30T09:05:14.159Z,19.46
2017-11-30T09:06:26.323Z,19.5
2017-11-30T09:07:38.952Z,19.55
2017-11-30T09:08:51.622Z,19.53
2017-11-30T09:10:03.886Z,19.53
2017-11-30T09:11:16.095Z,19.5
2017-11-30T09:12:28.703Z,19.55
2017-11-30T09:13:41.379Z,19.57
2017-11-30T09:14:53.618Z,19.52
2017-11-30T09:16:06.307Z,19.53
2017-11-30T09:17:19.013Z,19.62
2017-11-30T09:18:31.671Z,19.65
2017-11-30T09:19:44.368Z,19.68
2017-11-30T09:20:57.059Z,19.64
2017-11-30T09:22:09.287Z,19.62
2017-11-30T09:23:21.973Z,19.65
2017-11-30T09:24:34.681Z,19.49
2017-11-30T09:25:47.387Z,19.57
2017-11-30T09:26:59.644Z,19.46
2017-11-30T09:28:12.331Z,19.53
2017-11-30T09:29:24.530Z,19.57
2017-11-30T09:30:37.193Z,19.55
2017-11-30T09:31:50.037Z,19.62
2017-11-30T09:33:01.852Z,19.71
2017-11-30T09:34:14.581Z,19.79
2017-11-30T09:35:27.338Z,19.75
2017-11-30T09:36:40.095Z,19.78
2017-11-30T09:37:52.886Z,19.87
2017-11-30T09:39:05.660Z,19.83
2017-11-30T09:40:18.410Z,19.85
2017-11-30T09:41:31.185Z,19.95
2017-11-30T09:42:43.946Z,19.86
2017-11-30T09:43:56.242Z,19.83
2017-11-30T09:45:08.535Z,19.85
2017-11-30T09:46:21.320Z,19.86
2017-11-30T09:47:34.027Z,19.92
2017-11-30T09:48:46.768Z,19.94
2017-11-30T09:49:59.028Z,19.92
2017-11-30T09:51:11.766Z,19.95
2017-11-30T09:52:24.492Z,20.01
2017-11-30T09:53:36.788Z,20.02
2017-11-30T09:54:49.529Z,20.02
2017-11-30T09:56:02.283Z,20.04
2017-11-30T09:57:14.986Z,20.04
2017-11-30T09:58:27.683Z,20.1
2017-11-30T09:59:40.348Z,20.04
2017-11-30T10:00:53.076Z,20
2017-11-30T10:02:04.928Z,20.13
2017-11-30T10:03:17.625Z,20.04
2017-11-30T10:04:30.370Z,19.98
2017-11-30T10:05:42.698Z,19.98
2017-11-30T10:06:55.381Z,19.95
2017-11-30T10:08:07.645Z,20.02
2017-11-30T10:09:20.382Z,20.05
2017-11-30T10:10:33.167Z,20.05
2017-11-30T10:11:45.920Z,20.12
2017-11-30T10:12:57.288Z,20
2017-11-30T10:14:09.981Z,20.02
2017-11-30T10:15:22.646Z,20.17
2017-11-30T10:16:34.927Z,20.15
2017-11-30T10:17:47.160Z,20.1
2017-11-30T10:18:59.861Z,20.13
2017-11-30T10:20:12.598Z,20.04
2017-11-30T10:21:25.360Z,20.15
2017-11-30T10:22:37.595Z,20.08
2017-11-30T10:23:50.350Z,20.16
2017-11-30T10:25:02.588Z,20.22
2017-11-30T10:26:14.835Z,20.22
2017-11-30T10:27:27.580Z,20.31
2017-11-30T10:28:40.314Z,20.37
2017-11-30T10:29:53.043Z,20.41
2017-11-30T10:31:05.334Z,20.48
2017-11-30T10:32:18.073Z,20.56
2017-11-30T10:33:30.375Z,20.58
2017-11-30T10:34:43.067Z,20.66
2017-11-30T10:35:55.809Z,20.51
2017-11-30T10:37:08.688Z,20.46
2017-11-30T10:38:21.598Z,20.56
2017-11-30T10:39:34.323Z,20.53
2017-11-30T10:40:47.012Z,20.57
2017-11-30T10:41:59.245Z,20.57
2017-11-30T10:43:11.046Z,20.66
2017-11-30T10:44:23.852Z,20.72
2017-11-30T10:45:36.172Z,20.78
2017-11-30T10:46:48.500Z,20.78
2017-11-30T10:48:00.794Z,20.79
2017-11-30T10:49:13.532Z,20.71
2017-11-30T10:50:26.319Z,20.81
2017-11-30T10:51:38.721Z,20.83
2017-11-30T10:52:51.493Z,20.93
2017-11-30T10:54:03.766Z,20.98
2017-11-30T10:55:16.122Z,21.16
2017-11-30T10:56:28.901Z,21.06
2017-11-30T10:57:41.689Z,21.19
2017-11-30T10:58:54.473Z,21.33
2017-11-30T11:00:06.763Z,21.22
2017-11-30T11:01:19.514Z,21.33
2017-11-30T11:02:32.266Z,21.36
2017-11-30T11:03:44.975Z,21.31
2017-11-30T11:04:57.717Z,21.36
2017-11-30T11:06:10.443Z,21.36
2017-11-30T11:07:23.156Z,21.46
2017-11-30T11:08:35.942Z,21.4
2017-11-30T11:09:48.267Z,21.34
2017-11-30T11:11:00.167Z,21.26
2017-11-30T11:12:12.878Z,21.28
2017-11-30T11:13:25.621Z,21.33
2017-11-30T11:14:37.918Z,21.28
2017-11-30T11:15:50.681Z,21.33
2017-11-30T11:17:03.452Z,21.34
2017-11-30T11:18:16.222Z,21.45
2017-11-30T11:19:28.983Z,21.4
2017-11-30T11:20:41.336Z,21.45
2017-11-30T11:21:54.100Z,21.51
2017-11-30T11:23:06.924Z,21.61
2017-11-30T11:24:19.808Z,21.64
2017-11-30T11:25:32.145Z,21.7
2017-11-30T11:26:44.960Z,21.73
2017-11-30T11:27:57.747Z,21.75
2017-11-30T11:29:10.559Z,21.83
2017-11-30T11:30:23.333Z,21.85
2017-11-30T11:31:35.700Z,21.82
2017-11-30T11:32:48.459Z,21.89
2017-11-30T11:34:01.234Z,22.06
2017-11-30T11:35:13.985Z,22.09
2017-11-30T11:36:26.758Z,22.23
2017-11-30T11:37:39.530Z,22.17
2017-11-30T11:38:52.316Z,22.14
2017-11-30T11:40:04.185Z,22.3
2017-11-30T11:41:16.940Z,22.44
2017-11-30T11:42:29.715Z,22.48
2017-11-30T11:43:42.494Z,22.49
2017-11-30T11:44:54.800Z,22.64
2017-11-30T11:46:07.544Z,22.56
2017-11-30T11:47:19.412Z,22.61
2017-11-30T11:48:31.704Z,22.57
2017-11-30T11:49:44.469Z,22.66
2017-11-30T11:50:57.229Z,22.66
2017-11-30T11:52:09.518Z,22.61
2017-11-30T11:53:21.845Z,22.63
2017-11-30T11:54:34.582Z,22.59
2017-11-30T11:55:47.331Z,22.63
2017-11-30T11:57:00.101Z,22.7
2017-11-30T11:58:12.829Z,22.72
2017-11-30T11:59:25.064Z,22.67
2017-11-30T12:00:37.809Z,22.49
2017-11-30T12:01:50.129Z,22.54
2017-11-30T12:03:02.640Z,22.61
2017-11-30T12:04:14.923Z,22.61
2017-11-30T12:05:27.906Z,22.7
2017-11-30T12:06:40.665Z,22.69
2017-11-30T12:07:53.453Z,22.82
2017-11-30T12:09:05.743Z,22.85
2017-11-30T12:10:17.586Z,23.03
2017-11-30T12:11:29.457Z,23.09
2017-11-30T12:12:42.200Z,23.18
2017-11-30T12:13:54.948Z,23.18
2017-11-30T12:15:06.811Z,23.37
2017-11-30T12:16:19.562Z,23.44
2017-11-30T12:17:32.321Z,23.62
2017-11-30T12:18:44.602Z,23.68
2017-11-30T12:19:57.376Z,23.72
2017-11-30T12:21:10.173Z,23.9
2017-11-30T12:22:22.930Z,24.05
2017-11-30T12:23:35.310Z,24.26
2017-11-30T12:24:47.613Z,24.42
2017-11-30T12:25:59.921Z,24.52
2017-11-30T12:27:11.800Z,24.64
2017-11-30T12:28:24.554Z,24.66
2017-11-30T12:29:36.843Z,24.68
2017-11-30T12:30:49.145Z,24.51
2017-11-30T12:32:01.902Z,24.61
2017-11-30T12:33:14.659Z,24.64
2017-11-30T12:34:27.403Z,24.6
2017-11-30T12:35:39.710Z,24.63
2017-11-30T12:36:52.034Z,24.7
2017-11-30T12:38:04.826Z,24.82
2017-11-30T12:39:17.741Z,24.87
2017-11-30T12:40:29.594Z,24.87
2017-11-30T12:41:42.367Z,24.94
2017-11-30T12:42:55.124Z,24.9
2017-11-30T12:44:06.990Z,24.92
2017-11-30T12:45:19.767Z,24.77
2017-11-30T12:46:32.533Z,24.77
2017-11-30T12:47:45.289Z,24.8
2017-11-30T12:48:57.597Z,24.97
2017-11-30T12:50:10.334Z,24.9
2017-11-30T12:51:23.096Z,25.02
2017-11-30T12:52:35.413Z,24.92
2017-11-30T12:53:48.166Z,25.12
2017-11-30T12:55:00.929Z,25.08
2017-11-30T12:56:13.696Z,25.29
2017-11-30T12:57:26.453Z,24.97
2017-11-30T12:58:38.739Z,24.8
2017-11-30T12:59:51.024Z,24.64
2017-11-30T13:01:03.296Z,24.61
2017-11-30T13:02:16.090Z,24.79
2017-11-30T13:03:28.825Z,24.74
2017-11-30T13:04:41.547Z,24.52
2017-11-30T13:05:53.387Z,24.56
2017-11-30T13:07:04.791Z,24.63
2017-11-30T13:08:17.544Z,24.75
2017-11-30T13:09:29.834Z,24.87
2017-11-30T13:10:41.719Z,25.01
2017-11-30T13:11:54.541Z,25.05
2017-11-30T13:13:07.278Z,25.12
2017-11-30T13:14:20.012Z,25.31
2017-11-30T13:15:32.767Z,25.26
2017-11-30T13:16:45.061Z,25.53
2017-11-30T13:17:56.903Z,25.74
2017-11-30T13:19:08.765Z,25.74
2017-11-30T13:20:21.060Z,25.56
2017-11-30T13:21:33.850Z,25.51
2017-11-30T13:22:46.144Z,25.3
2017-11-30T13:23:58.051Z,25.38
2017-11-30T13:25:10.789Z,25.42
2017-11-30T13:26:23.080Z,25.67
2017-11-30T13:27:35.364Z,25.86
2017-11-30T13:28:48.147Z,25.98
2017-11-30T13:30:00.027Z,26.16
2017-11-30T13:31:12.769Z,26.31
2017-11-30T13:32:25.506Z,26.5
2017-11-30T13:33:38.333Z,26.65
2017-11-30T13:34:50.637Z,27.01
2017-11-30T13:36:02.920Z,26.94
2017-11-30T13:37:15.203Z,27.06
2017-11-30T13:38:27.558Z,27.16
2017-11-30T13:39:39.851Z,27.12
2017-11-30T13:40:52.136Z,26.96
2017-11-30T13:42:03.970Z,26.9
2017-11-30T13:43:16.686Z,26.96
2017-11-30T13:44:29.024Z,26.69
2017-11-30T13:45:40.867Z,26.28
2017-11-30T13:46:53.578Z,25.93
2017-11-30T13:48:06.236Z,25.76
2017-11-30T13:49:18.008Z,25.56
2017-11-30T13:50:30.247Z,25.34
2017-11-30T13:51:42.466Z,25.31
2017-11-30T13:52:54.666Z,25.3
2017-11-30T13:54:07.316Z,25.57
2017-11-30T13:55:20.030Z,25.79
2017-11-30T13:56:32.314Z,26.01
2017-11-30T13:57:44.997Z,26.16
2017-11-30T13:58:57.669Z,25.82
2017-11-30T14:00:09.947Z,25.48
2017-11-30T14:01:22.166Z,25.59
2017-11-30T14:02:34.363Z,25.79
2017-11-30T14:03:47.101Z,25.67
2017-11-30T14:04:59.330Z,25.53
2017-11-30T14:06:11.633Z,25.51
2017-11-30T14:07:23.861Z,25.45
2017-11-30T14:08:36.547Z,25.35
2017-11-30T14:09:49.241Z,25.36
2017-11-30T14:11:01.488Z,25.3
2017-11-30T14:12:14.148Z,25.29
2017-11-30T14:13:25.928Z,25.23
2017-11-30T14:14:38.197Z,25.09
2017-11-30T14:15:50.468Z,25.16
2017-11-30T14:17:02.731Z,24.9
2017-11-30T14:18:15.412Z,24.8
2017-11-30T14:19:28.038Z,24.75
2017-11-30T14:20:40.734Z,24.84
2017-11-30T14:21:53.331Z,24.7
2017-11-30T14:23:05.176Z,24.67
2017-11-30T14:24:17.449Z,24.61
2017-11-30T14:25:30.207Z,24.52
2017-11-30T14:26:42.458Z,24.63
2017-11-30T14:27:54.283Z,24.64
2017-11-30T14:29:07.017Z,24.6
2017-11-30T14:30:19.306Z,24.68
2017-11-30T14:31:31.564Z,24.68
2017-11-30T14:32:44.284Z,24.52
2017-11-30T14:33:56.929Z,24.59
2017-11-30T16:55:25.569Z,22.94
2017-11-30T16:56:35.662Z,22.85
2017-11-30T16:57:35.649Z,22.70
2017-11-30T16:58:56.597Z,22.85
2017-11-30T16:59:56.584Z,23.00
2017-11-30T17:00:56.595Z,23.00
2017-11-30T17:01:56.594Z,23.12
2017-11-30T17:02:56.587Z,23.12
2017-11-30T17:03:56.587Z,23.23
2017-11-30T17:04:56.568Z,23.25
2017-11-30T17:05:56.571Z,23.23
2017-11-30T17:06:56.548Z,23.34
2017-11-30T17:07:56.554Z,23.44
2017-11-30T17:08:56.538Z,23.45
2017-11-30T17:09:56.539Z,23.18
2017-11-30T17:10:56.533Z,23.01
2017-11-30T17:11:56.536Z,23.07
2017-11-30T17:12:56.531Z,23.34
2017-11-30T17:13:56.509Z,23.63
2017-11-30T17:14:56.499Z,23.82
2017-11-30T17:15:56.498Z,23.71
2017-11-30T17:16:56.507Z,23.77
2017-11-30T17:17:56.484Z,23.74
2017-11-30T17:18:56.490Z,23.77
2017-11-30T17:19:56.485Z,23.52
2017-11-30T17:20:56.475Z,23.63
2017-11-30T17:21:56.477Z,23.44
2017-11-30T17:22:56.473Z,23.53
2017-11-30T17:23:56.458Z,23.67
2017-11-30T17:24:56.454Z,23.44
2017-11-30T17:25:56.443Z,23.50
2017-11-30T17:26:56.457Z,23.47
2017-11-30T17:27:56.457Z,23.45
2017-11-30T17:28:56.448Z,23.07
2017-11-30T17:29:56.434Z,23.14
2017-11-30T17:30:56.425Z,23.07
2017-11-30T17:31:56.446Z,23.18
2017-11-30T17:32:56.418Z,23.22
2017-11-30T17:33:56.415Z,23.19
2017-11-30T17:34:56.431Z,23.11
2017-11-30T17:35:56.426Z,22.85
2017-11-30T17:36:56.423Z,22.84
2017-11-30T17:37:56.399Z,22.79
2017-11-30T17:38:56.400Z,22.81
2017-11-30T17:39:56.390Z,22.74
2017-11-30T17:40:56.401Z,22.61
2017-11-30T17:41:56.403Z,22.56
2017-11-30T17:42:56.399Z,22.63
2017-11-30T17:43:56.379Z,22.67
2017-11-30T17:44:56.385Z,22.75
2017-11-30T17:45:56.371Z,22.72
2017-11-30T17:46:56.363Z,22.46
2017-11-30T17:47:56.373Z,22.46
2017-11-30T17:48:56.359Z,22.41
2017-11-30T17:49:56.359Z,22.41
2017-11-30T17:50:56.370Z,22.35
2017-11-30T17:51:56.366Z,22.36
2017-11-30T17:52:56.342Z,22.35
2017-11-30T17:53:56.343Z,22.35
2017-11-30T17:54:56.334Z,22.39
2017-11-30T17:55:56.328Z,22.19
2017-11-30T17:56:56.319Z,22.15
2017-11-30T17:57:56.324Z,22.33
2017-11-30T17:58:56.320Z,22.29
2017-11-30T17:59:56.304Z,22.36
2017-11-30T18:00:56.306Z,22.46
2017-11-30T18:01:56.298Z,22.44
2017-11-30T18:02:56.298Z,22.11
2017-11-30T18:03:56.288Z,22.17
2017-11-30T18:04:56.293Z,22.31
2017-11-30T18:05:56.280Z,22.06
2017-11-30T18:06:56.275Z,22.12
2017-11-30T18:07:56.280Z,22.19
2017-11-30T18:08:56.262Z,22.17
2017-11-30T18:09:56.268Z,22.02
2017-11-30T18:10:56.264Z,22.06
2017-11-30T18:11:56.263Z,21.96